La Grange, TX

5:38 PM CST on December 27, 2014 (GMT -0600)
RAWS LA GRANGE TX US | Change Station
CLOSE
Current Station
Personal Weather Station
Location: La Grange, TX
Elevation: 154 ft
Nearby Weather Stations

Elev 154 ft 29.91 °N, 96.86 °W | Updated 35 minutes ago

Mostly Cloudy
Mostly Cloudy
47 °F
Feels Like 42 °F
N
11
Wind Variable Wind from North
Gusts 20.0 mph

Today
High -- | Low -- °F
--% Chance of Precip.
Yesterday
High -- | Low -- °F
Precip. -- in
7:21 AM 5:35 PM
Waxing Crescent, 41% visible
Pressure 30.13 in
Visibility 10.0 miles
Clouds Scattered Clouds 3100 ft
Overcast 3700 ft
Windchill 42 °F
Dew Point 39 °F
Humidity 75%
Rainfall 0.49 in
Snow Depth Not available.
UV 0 out of 12
Pollen 8.80 out of 12
Air Quality Not available.
Flu Activity Not available.
METAR K3T5 272310Z AUTO 36010G19KT 10SM SCT031 OVC037 09/05 A3013 RMK AO2 T00900050

More Conditions Fewer Conditions

Pressure 30.13 in
Visibility 10.0 miles
Clouds Scattered Clouds 3100 ft
Overcast 3700 ft
Windchill 42 °F
Dew Point 39 °F
Humidity 75%
Rainfall 0.49 in
Snow Depth Not available.
UV 0 out of 12
Pollen 8.80 out of 12
Air Quality Not available.
Flu Activity Not available.
METAR K3T5 272310Z AUTO 36010G19KT 10SM SCT031 OVC037 09/05 A3013 RMK AO2 T00900050

More Conditions Fewer Conditions

10-Day Weather Forecast

Almanac

Astronomy

Dec. 27, 2014 Rise Set
Actual Time
Civil Twilight
Nautical Twilight
Astronomical Twilight
Moon
Length of Visible Light
Length of Day
Tomorrow will be .
, % of the Moon is Illuminated

Today's Extremes

State Highs State Lows

Community

WunderPhotos

Upload Photos

1,781,109 photos uploaded!

WunderBlogs® & News

Nearby

Air Quality

  Air Quality AQ Index Pollutant
Not available.

Snow Depth

Station Depth Elevation

Earthquake Activity

City Distance Mag. Time & Date
Minimum magnitude displayed is 2.5.

Coastal Water Temperatures

Place Temperature

Nearby Weather Stations